sensor_id;sensor_type;location;lat;lon;timestamp;P1;durP1;ratioP1;P2;durP2;ratioP2
57241;SDS011;43095;53.302;5.786;2022-10-16T00:01:37;11.10;;;1.63;;
57241;SDS011;43095;53.302;5.786;2022-10-16T00:04:05;7.00;;;1.42;;
57241;SDS011;43095;53.302;5.786;2022-10-16T00:06:38;10.15;;;2.05;;
57241;SDS011;43095;53.302;5.786;2022-10-16T00:09:06;12.70;;;1.95;;
57241;SDS011;43095;53.302;5.786;2022-10-16T00:11:34;7.60;;;1.55;;
57241;SDS011;43095;53.302;5.786;2022-10-16T00:14:12;6.75;;;1.67;;
57241;SDS011;43095;53.302;5.786;2022-10-16T00:16:42;7.82;;;1.77;;
57241;SDS011;43095;53.302;5.786;2022-10-16T00:19:10;9.70;;;1.80;;
57241;SDS011;43095;53.302;5.786;2022-10-16T00:21:41;8.45;;;2.17;;
57241;SDS011;43095;53.302;5.786;2022-10-16T00:24:30;6.57;;;1.67;;
57241;SDS011;43095;53.302;5.786;2022-10-16T00:26:57;9.75;;;1.88;;
57241;SDS011;43095;53.302;5.786;2022-10-16T00:29:25;8.95;;;1.80;;
57241;SDS011;43095;53.302;5.786;2022-10-16T00:31:52;9.20;;;1.65;;
57241;SDS011;43095;53.302;5.786;2022-10-16T00:34:19;11.07;;;1.65;;
57241;SDS011;43095;53.302;5.786;2022-10-16T00:36:49;8.10;;;1.63;;
57241;SDS011;43095;53.302;5.786;2022-10-16T00:39:16;11.77;;;2.25;;
57241;SDS011;43095;53.302;5.786;2022-10-16T00:41:43;6.80;;;1.73;;
57241;SDS011;43095;53.302;5.786;2022-10-16T00:47:29;10.60;;;1.40;;
57241;SDS011;43095;53.302;5.786;2022-10-16T00:50:07;7.68;;;1.35;;
57241;SDS011;43095;53.302;5.786;2022-10-16T00:52:37;8.73;;;1.70;;
57241;SDS011;43095;53.302;5.786;2022-10-16T00:55:09;10.45;;;2.75;;
57241;SDS011;43095;53.302;5.786;2022-10-16T00:57:36;4.97;;;1.33;;
57241;SDS011;43095;53.302;5.786;2022-10-16T01:00:07;7.43;;;1.30;;
57241;SDS011;43095;53.302;5.786;2022-10-16T01:02:36;9.75;;;2.08;;
57241;SDS011;43095;53.302;5.786;2022-10-16T01:05:06;8.02;;;1.38;;
57241;SDS011;43095;53.302;5.786;2022-10-16T01:10:44;11.18;;;2.33;;
57241;SDS011;43095;53.302;5.786;2022-10-16T01:13:24;7.60;;;1.67;;
57241;SDS011;43095;53.302;5.786;2022-10-16T01:16:05;10.10;;;1.67;;
57241;SDS011;43095;53.302;5.786;2022-10-16T01:19:00;6.50;;;1.13;;
57241;SDS011;43095;53.302;5.786;2022-10-16T01:21:36;6.05;;;1.40;;
57241;SDS011;43095;53.302;5.786;2022-10-16T01:32:36;6.10;;;1.30;;
57241;SDS011;43095;53.302;5.786;2022-10-16T01:35:05;5.25;;;1.00;;
57241;SDS011;43095;53.302;5.786;2022-10-16T01:40:23;5.57;;;1.20;;
57241;SDS011;43095;53.302;5.786;2022-10-16T01:42:54;4.50;;;1.27;;
57241;SDS011;43095;53.302;5.786;2022-10-16T01:45:28;6.82;;;1.77;;
57241;SDS011;43095;53.302;5.786;2022-10-16T01:47:58;9.40;;;1.45;;
57241;SDS011;43095;53.302;5.786;2022-10-16T01:50:33;4.05;;;1.10;;
57241;SDS011;43095;53.302;5.786;2022-10-16T01:53:03;5.95;;;1.17;;
57241;SDS011;43095;53.302;5.786;2022-10-16T01:55:34;4.47;;;1.30;;
57241;SDS011;43095;53.302;5.786;2022-10-16T01:58:07;7.28;;;1.35;;
57241;SDS011;43095;53.302;5.786;2022-10-16T02:00:36;3.97;;;1.10;;
57241;SDS011;43095;53.302;5.786;2022-10-16T02:03:08;12.23;;;1.13;;
57241;SDS011;43095;53.302;5.786;2022-10-16T02:05:45;6.93;;;1.30;;
57241;SDS011;43095;53.302;5.786;2022-10-16T02:08:15;7.45;;;1.30;;
57241;SDS011;43095;53.302;5.786;2022-10-16T02:10:43;6.63;;;1.23;;
57241;SDS011;43095;53.302;5.786;2022-10-16T02:13:17;7.05;;;1.60;;
57241;SDS011;43095;53.302;5.786;2022-10-16T02:15:51;5.97;;;1.35;;
57241;SDS011;43095;53.302;5.786;2022-10-16T02:18:20;8.68;;;1.63;;
57241;SDS011;43095;53.302;5.786;2022-10-16T02:20:53;5.97;;;1.55;;
57241;SDS011;43095;53.302;5.786;2022-10-16T02:23:33;5.22;;;1.35;;
57241;SDS011;43095;53.302;5.786;2022-10-16T02:26:28;7.40;;;1.48;;
57241;SDS011;43095;53.302;5.786;2022-10-16T02:29:10;6.35;;;1.45;;
57241;SDS011;43095;53.302;5.786;2022-10-16T02:31:41;10.20;;;2.10;;
57241;SDS011;43095;53.302;5.786;2022-10-16T02:34:15;9.40;;;2.17;;
57241;SDS011;43095;53.302;5.786;2022-10-16T02:36:45;5.93;;;1.38;;
57241;SDS011;43095;53.302;5.786;2022-10-16T02:39:14;5.53;;;1.15;;
57241;SDS011;43095;53.302;5.786;2022-10-16T02:41:45;2.85;;;1.20;;
57241;SDS011;43095;53.302;5.786;2022-10-16T02:44:12;6.88;;;1.50;;
57241;SDS011;43095;53.302;5.786;2022-10-16T02:46:40;6.63;;;1.45;;
57241;SDS011;43095;53.302;5.786;2022-10-16T02:49:08;5.30;;;1.83;;
57241;SDS011;43095;53.302;5.786;2022-10-16T02:51:36;7.97;;;1.33;;
57241;SDS011;43095;53.302;5.786;2022-10-16T02:54:03;3.92;;;1.50;;
57241;SDS011;43095;53.302;5.786;2022-10-16T02:56:31;7.15;;;2.08;;
57241;SDS011;43095;53.302;5.786;2022-10-16T02:58:59;8.45;;;2.33;;
57241;SDS011;43095;53.302;5.786;2022-10-16T03:01:26;6.07;;;2.17;;
57241;SDS011;43095;53.302;5.786;2022-10-16T03:03:54;5.90;;;1.90;;
57241;SDS011;43095;53.302;5.786;2022-10-16T03:06:23;6.40;;;1.83;;
57241;SDS011;43095;53.302;5.786;2022-10-16T03:08:50;5.70;;;2.22;;
57241;SDS011;43095;53.302;5.786;2022-10-16T03:11:17;7.45;;;2.53;;
57241;SDS011;43095;53.302;5.786;2022-10-16T03:13:45;7.93;;;2.50;;
57241;SDS011;43095;53.302;5.786;2022-10-16T03:16:12;5.88;;;2.55;;
57241;SDS011;43095;53.302;5.786;2022-10-16T03:18:41;8.05;;;3.00;;
57241;SDS011;43095;53.302;5.786;2022-10-16T03:21:09;4.72;;;2.08;;
57241;SDS011;43095;53.302;5.786;2022-10-16T03:23:36;4.75;;;2.28;;
57241;SDS011;43095;53.302;5.786;2022-10-16T03:26:03;9.95;;;2.88;;
57241;SDS011;43095;53.302;5.786;2022-10-16T03:28:31;8.05;;;2.40;;
57241;SDS011;43095;53.302;5.786;2022-10-16T03:30:59;8.40;;;2.28;;
57241;SDS011;43095;53.302;5.786;2022-10-16T03:33:26;4.72;;;2.65;;
57241;SDS011;43095;53.302;5.786;2022-10-16T03:35:54;9.73;;;2.60;;
57241;SDS011;43095;53.302;5.786;2022-10-16T03:38:22;5.78;;;2.38;;
57241;SDS011;43095;53.302;5.786;2022-10-16T03:40:49;7.93;;;2.30;;
57241;SDS011;43095;53.302;5.786;2022-10-16T03:43:17;8.48;;;1.98;;
57241;SDS011;43095;53.302;5.786;2022-10-16T03:45:44;6.78;;;2.33;;
57241;SDS011;43095;53.302;5.786;2022-10-16T03:48:12;5.97;;;2.30;;
57241;SDS011;43095;53.302;5.786;2022-10-16T03:50:42;9.15;;;2.30;;
57241;SDS011;43095;53.302;5.786;2022-10-16T03:53:10;8.18;;;2.03;;
57241;SDS011;43095;53.302;5.786;2022-10-16T03:55:37;6.13;;;1.80;;
57241;SDS011;43095;53.302;5.786;2022-10-16T03:58:04;7.30;;;1.55;;
57241;SDS011;43095;53.302;5.786;2022-10-16T04:00:32;3.67;;;1.60;;
57241;SDS011;43095;53.302;5.786;2022-10-16T04:02:59;8.35;;;2.10;;
57241;SDS011;43095;53.302;5.786;2022-10-16T04:05:27;5.85;;;1.92;;
57241;SDS011;43095;53.302;5.786;2022-10-16T04:07:57;6.68;;;2.22;;
57241;SDS011;43095;53.302;5.786;2022-10-16T04:10:25;7.03;;;2.05;;
57241;SDS011;43095;53.302;5.786;2022-10-16T04:12:55;6.75;;;1.95;;
57241;SDS011;43095;53.302;5.786;2022-10-16T04:15:25;9.10;;;1.70;;
57241;SDS011;43095;53.302;5.786;2022-10-16T04:17:53;4.90;;;1.63;;
57241;SDS011;43095;53.302;5.786;2022-10-16T04:20:21;5.30;;;1.42;;
57241;SDS011;43095;53.302;5.786;2022-10-16T04:22:48;9.40;;;1.80;;
57241;SDS011;43095;53.302;5.786;2022-10-16T04:25:15;6.22;;;1.40;;
57241;SDS011;43095;53.302;5.786;2022-10-16T04:27:42;5.70;;;1.55;;
57241;SDS011;43095;53.302;5.786;2022-10-16T04:30:12;4.80;;;1.40;;
57241;SDS011;43095;53.302;5.786;2022-10-16T04:32:39;6.72;;;1.80;;
57241;SDS011;43095;53.302;5.786;2022-10-16T04:35:07;5.55;;;1.48;;
57241;SDS011;43095;53.302;5.786;2022-10-16T04:37:35;7.78;;;1.73;;
57241;SDS011;43095;53.302;5.786;2022-10-16T04:40:02;5.32;;;2.00;;
57241;SDS011;43095;53.302;5.786;2022-10-16T04:42:30;4.82;;;1.52;;
57241;SDS011;43095;53.302;5.786;2022-10-16T04:44:57;6.90;;;1.65;;
57241;SDS011;43095;53.302;5.786;2022-10-16T04:47:24;3.47;;;1.58;;
57241;SDS011;43095;53.302;5.786;2022-10-16T04:49:52;5.63;;;1.80;;
57241;SDS011;43095;53.302;5.786;2022-10-16T04:52:20;10.85;;;1.42;;
57241;SDS011;43095;53.302;5.786;2022-10-16T04:54:50;9.18;;;2.17;;
57241;SDS011;43095;53.302;5.786;2022-10-16T04:57:18;5.60;;;1.65;;
57241;SDS011;43095;53.302;5.786;2022-10-16T04:59:46;9.30;;;1.52;;
57241;SDS011;43095;53.302;5.786;2022-10-16T05:02:13;7.95;;;1.30;;
57241;SDS011;43095;53.302;5.786;2022-10-16T05:04:41;4.72;;;1.70;;
57241;SDS011;43095;53.302;5.786;2022-10-16T05:07:08;6.00;;;1.20;;
57241;SDS011;43095;53.302;5.786;2022-10-16T05:09:36;6.57;;;1.45;;
57241;SDS011;43095;53.302;5.786;2022-10-16T05:12:03;11.35;;;2.15;;
57241;SDS011;43095;53.302;5.786;2022-10-16T05:14:31;5.63;;;1.20;;
57241;SDS011;43095;53.302;5.786;2022-10-16T05:17:00;5.28;;;1.20;;
57241;SDS011;43095;53.302;5.786;2022-10-16T05:19:35;5.25;;;1.23;;
57241;SDS011;43095;53.302;5.786;2022-10-16T05:22:03;3.90;;;1.02;;
57241;SDS011;43095;53.302;5.786;2022-10-16T05:24:30;4.78;;;1.33;;
57241;SDS011;43095;53.302;5.786;2022-10-16T05:27:01;8.43;;;1.60;;
57241;SDS011;43095;53.302;5.786;2022-10-16T05:29:28;3.80;;;1.08;;
57241;SDS011;43095;53.302;5.786;2022-10-16T05:31:55;3.33;;;1.02;;
57241;SDS011;43095;53.302;5.786;2022-10-16T05:34:22;4.82;;;1.33;;
57241;SDS011;43095;53.302;5.786;2022-10-16T05:36:50;5.78;;;1.50;;
57241;SDS011;43095;53.302;5.786;2022-10-16T05:39:18;5.97;;;1.70;;
57241;SDS011;43095;53.302;5.786;2022-10-16T05:41:45;7.55;;;1.85;;
57241;SDS011;43095;53.302;5.786;2022-10-16T05:44:12;5.10;;;1.63;;
57241;SDS011;43095;53.302;5.786;2022-10-16T05:46:40;4.38;;;1.38;;
57241;SDS011;43095;53.302;5.786;2022-10-16T05:49:07;6.43;;;1.63;;
57241;SDS011;43095;53.302;5.786;2022-10-16T05:51:36;8.20;;;2.38;;
57241;SDS011;43095;53.302;5.786;2022-10-16T05:54:04;6.65;;;2.17;;
57241;SDS011;43095;53.302;5.786;2022-10-16T05:56:32;5.18;;;2.40;;
57241;SDS011;43095;53.302;5.786;2022-10-16T05:58:59;8.23;;;2.47;;
57241;SDS011;43095;53.302;5.786;2022-10-16T06:01:26;7.30;;;2.35;;
57241;SDS011;43095;53.302;5.786;2022-10-16T06:03:54;6.93;;;2.42;;
57241;SDS011;43095;53.302;5.786;2022-10-16T06:06:23;6.50;;;2.58;;
57241;SDS011;43095;53.302;5.786;2022-10-16T06:08:52;5.55;;;2.40;;
57241;SDS011;43095;53.302;5.786;2022-10-16T06:11:22;9.30;;;3.38;;
57241;SDS011;43095;53.302;5.786;2022-10-16T06:13:55;5.32;;;2.05;;
57241;SDS011;43095;53.302;5.786;2022-10-16T06:16:24;9.55;;;2.78;;
57241;SDS011;43095;53.302;5.786;2022-10-16T06:18:52;8.07;;;2.45;;
57241;SDS011;43095;53.302;5.786;2022-10-16T06:21:23;9.70;;;2.55;;
57241;SDS011;43095;53.302;5.786;2022-10-16T06:23:52;7.53;;;2.42;;
57241;SDS011;43095;53.302;5.786;2022-10-16T06:26:21;11.95;;;3.00;;
57241;SDS011;43095;53.302;5.786;2022-10-16T06:28:50;8.30;;;2.67;;
57241;SDS011;43095;53.302;5.786;2022-10-16T06:31:17;11.20;;;2.60;;
57241;SDS011;43095;53.302;5.786;2022-10-16T06:33:45;7.68;;;2.20;;
57241;SDS011;43095;53.302;5.786;2022-10-16T06:36:14;7.50;;;2.63;;
57241;SDS011;43095;53.302;5.786;2022-10-16T06:38:43;7.85;;;2.05;;
57241;SDS011;43095;53.302;5.786;2022-10-16T06:41:12;7.63;;;2.42;;
57241;SDS011;43095;53.302;5.786;2022-10-16T06:43:47;9.40;;;2.78;;
57241;SDS011;43095;53.302;5.786;2022-10-16T06:46:16;8.23;;;2.45;;
57241;SDS011;43095;53.302;5.786;2022-10-16T06:48:45;14.98;;;2.35;;
57241;SDS011;43095;53.302;5.786;2022-10-16T06:51:22;10.57;;;2.55;;
57241;SDS011;43095;53.302;5.786;2022-10-16T06:53:52;8.35;;;2.30;;
57241;SDS011;43095;53.302;5.786;2022-10-16T06:56:30;9.85;;;2.17;;
57241;SDS011;43095;53.302;5.786;2022-10-16T06:58:58;13.38;;;2.45;;
57241;SDS011;43095;53.302;5.786;2022-10-16T07:01:26;7.97;;;2.40;;
57241;SDS011;43095;53.302;5.786;2022-10-16T07:03:54;6.32;;;1.83;;
57241;SDS011;43095;53.302;5.786;2022-10-16T07:06:23;8.63;;;2.00;;
57241;SDS011;43095;53.302;5.786;2022-10-16T07:08:51;9.27;;;2.22;;
57241;SDS011;43095;53.302;5.786;2022-10-16T07:11:20;5.05;;;1.67;;
57241;SDS011;43095;53.302;5.786;2022-10-16T07:13:53;11.40;;;2.50;;
57241;SDS011;43095;53.302;5.786;2022-10-16T07:16:23;11.93;;;2.00;;
57241;SDS011;43095;53.302;5.786;2022-10-16T07:18:53;9.82;;;1.65;;
57241;SDS011;43095;53.302;5.786;2022-10-16T07:21:27;9.13;;;1.83;;
57241;SDS011;43095;53.302;5.786;2022-10-16T07:24:02;6.55;;;1.67;;
57241;SDS011;43095;53.302;5.786;2022-10-16T07:26:35;7.10;;;2.90;;
57241;SDS011;43095;53.302;5.786;2022-10-16T07:29:07;6.57;;;2.63;;
57241;SDS011;43095;53.302;5.786;2022-10-16T07:31:40;7.55;;;2.47;;
57241;SDS011;43095;53.302;5.786;2022-10-16T07:34:08;7.28;;;1.83;;
57241;SDS011;43095;53.302;5.786;2022-10-16T07:36:36;10.23;;;2.58;;
57241;SDS011;43095;53.302;5.786;2022-10-16T07:39:04;7.63;;;2.95;;
57241;SDS011;43095;53.302;5.786;2022-10-16T07:41:33;4.88;;;2.00;;
57241;SDS011;43095;53.302;5.786;2022-10-16T07:44:05;7.82;;;3.05;;
57241;SDS011;43095;53.302;5.786;2022-10-16T07:46:33;6.22;;;2.00;;
57241;SDS011;43095;53.302;5.786;2022-10-16T07:49:02;6.88;;;2.35;;
57241;SDS011;43095;53.302;5.786;2022-10-16T07:51:30;10.95;;;2.28;;
57241;SDS011;43095;53.302;5.786;2022-10-16T07:53:57;7.70;;;1.90;;
57241;SDS011;43095;53.302;5.786;2022-10-16T07:56:25;5.97;;;1.80;;
57241;SDS011;43095;53.302;5.786;2022-10-16T07:59:06;3.97;;;1.90;;
57241;SDS011;43095;53.302;5.786;2022-10-16T08:01:33;5.30;;;2.40;;
57241;SDS011;43095;53.302;5.786;2022-10-16T08:04:05;6.47;;;2.33;;
57241;SDS011;43095;53.302;5.786;2022-10-16T08:06:37;9.20;;;2.17;;
57241;SDS011;43095;53.302;5.786;2022-10-16T08:09:07;9.10;;;2.75;;
57241;SDS011;43095;53.302;5.786;2022-10-16T08:11:35;7.68;;;2.33;;
57241;SDS011;43095;53.302;5.786;2022-10-16T08:14:02;9.48;;;2.83;;
57241;SDS011;43095;53.302;5.786;2022-10-16T08:16:30;9.70;;;2.72;;
57241;SDS011;43095;53.302;5.786;2022-10-16T08:18:57;10.35;;;2.70;;
57241;SDS011;43095;53.302;5.786;2022-10-16T08:21:25;9.35;;;2.67;;
57241;SDS011;43095;53.302;5.786;2022-10-16T08:23:53;8.45;;;2.17;;
57241;SDS011;43095;53.302;5.786;2022-10-16T08:26:24;9.02;;;2.05;;
57241;SDS011;43095;53.302;5.786;2022-10-16T08:28:53;9.65;;;2.00;;
57241;SDS011;43095;53.302;5.786;2022-10-16T08:31:27;8.98;;;2.10;;
57241;SDS011;43095;53.302;5.786;2022-10-16T08:33:55;7.82;;;1.90;;
57241;SDS011;43095;53.302;5.786;2022-10-16T08:36:22;9.23;;;1.80;;
57241;SDS011;43095;53.302;5.786;2022-10-16T08:38:50;10.07;;;2.25;;
57241;SDS011;43095;53.302;5.786;2022-10-16T08:41:21;12.40;;;3.10;;
57241;SDS011;43095;53.302;5.786;2022-10-16T08:49:16;11.45;;;2.40;;
57241;SDS011;43095;53.302;5.786;2022-10-16T08:51:44;10.40;;;2.30;;
57241;SDS011;43095;53.302;5.786;2022-10-16T08:56:54;6.45;;;1.80;;
57241;SDS011;43095;53.302;5.786;2022-10-16T08:59:34;10.68;;;2.35;;
57241;SDS011;43095;53.302;5.786;2022-10-16T09:02:02;8.60;;;1.85;;
57241;SDS011;43095;53.302;5.786;2022-10-16T09:15:44;9.60;;;2.28;;
57241;SDS011;43095;53.302;5.786;2022-10-16T09:23:46;14.85;;;2.88;;
57241;SDS011;43095;53.302;5.786;2022-10-16T09:26:15;15.73;;;2.90;;
57241;SDS011;43095;53.302;5.786;2022-10-16T09:28:45;12.27;;;2.92;;
57241;SDS011;43095;53.302;5.786;2022-10-16T09:31:17;16.42;;;3.05;;
57241;SDS011;43095;53.302;5.786;2022-10-16T09:33:53;17.92;;;3.75;;
57241;SDS011;43095;53.302;5.786;2022-10-16T09:36:25;15.73;;;2.45;;
57241;SDS011;43095;53.302;5.786;2022-10-16T09:39:05;14.13;;;2.78;;
57241;SDS011;43095;53.302;5.786;2022-10-16T09:41:37;15.75;;;2.55;;
57241;SDS011;43095;53.302;5.786;2022-10-16T09:44:22;13.38;;;2.33;;
57241;SDS011;43095;53.302;5.786;2022-10-16T09:50:00;23.05;;;3.90;;
57241;SDS011;43095;53.302;5.786;2022-10-16T09:52:33;21.23;;;3.67;;
57241;SDS011;43095;53.302;5.786;2022-10-16T09:55:09;22.10;;;4.05;;
57241;SDS011;43095;53.302;5.786;2022-10-16T10:00:22;19.45;;;4.45;;
57241;SDS011;43095;53.302;5.786;2022-10-16T10:02:50;23.25;;;3.35;;
57241;SDS011;43095;53.302;5.786;2022-10-16T10:07:56;25.88;;;3.60;;
57241;SDS011;43095;53.302;5.786;2022-10-16T10:10:40;16.40;;;3.55;;
57241;SDS011;43095;53.302;5.786;2022-10-16T10:13:27;19.48;;;3.78;;
57241;SDS011;43095;53.302;5.786;2022-10-16T10:15:54;19.42;;;4.38;;
57241;SDS011;43095;53.302;5.786;2022-10-16T10:18:22;17.00;;;2.92;;
57241;SDS011;43095;53.302;5.786;2022-10-16T10:20:57;18.27;;;3.45;;
57241;SDS011;43095;53.302;5.786;2022-10-16T10:23:27;19.02;;;3.03;;
57241;SDS011;43095;53.302;5.786;2022-10-16T10:26:11;19.42;;;3.25;;
57241;SDS011;43095;53.302;5.786;2022-10-16T10:28:50;13.98;;;3.33;;
57241;SDS011;43095;53.302;5.786;2022-10-16T10:32:02;22.15;;;3.25;;
57241;SDS011;43095;53.302;5.786;2022-10-16T10:34:55;20.42;;;3.92;;
57241;SDS011;43095;53.302;5.786;2022-10-16T10:40:15;21.63;;;3.70;;
57241;SDS011;43095;53.302;5.786;2022-10-16T10:42:59;19.05;;;3.20;;
57241;SDS011;43095;53.302;5.786;2022-10-16T10:45:42;15.88;;;3.35;;
57241;SDS011;43095;53.302;5.786;2022-10-16T10:48:16;20.80;;;3.42;;
57241;SDS011;43095;53.302;5.786;2022-10-16T10:51:08;18.13;;;3.45;;
57241;SDS011;43095;53.302;5.786;2022-10-16T10:53:45;19.80;;;3.45;;
57241;SDS011;43095;53.302;5.786;2022-10-16T10:56:48;16.15;;;2.90;;
57241;SDS011;43095;53.302;5.786;2022-10-16T11:02:15;12.60;;;3.47;;
57241;SDS011;43095;53.302;5.786;2022-10-16T11:05:12;11.10;;;2.33;;
57241;SDS011;43095;53.302;5.786;2022-10-16T11:07:49;22.17;;;3.95;;
57241;SDS011;43095;53.302;5.786;2022-10-16T11:10:42;14.32;;;3.00;;
57241;SDS011;43095;53.302;5.786;2022-10-16T11:14:00;13.63;;;3.10;;
57241;SDS011;43095;53.302;5.786;2022-10-16T11:16:19;14.40;;;2.97;;
57241;SDS011;43095;53.302;5.786;2022-10-16T11:19:12;12.40;;;2.75;;
57241;SDS011;43095;53.302;5.786;2022-10-16T11:21:54;15.35;;;2.80;;
57241;SDS011;43095;53.302;5.786;2022-10-16T11:24:40;16.05;;;2.78;;
57241;SDS011;43095;53.302;5.786;2022-10-16T11:38:17;18.30;;;2.60;;
57241;SDS011;43095;53.302;5.786;2022-10-16T11:41:12;12.98;;;3.03;;
57241;SDS011;43095;53.302;5.786;2022-10-16T11:46:30;12.10;;;3.40;;
57241;SDS011;43095;53.302;5.786;2022-10-16T11:49:22;13.77;;;2.60;;
57241;SDS011;43095;53.302;5.786;2022-10-16T11:51:59;14.18;;;3.58;;
57241;SDS011;43095;53.302;5.786;2022-10-16T11:54:35;16.48;;;3.95;;
57241;SDS011;43095;53.302;5.786;2022-10-16T11:57:23;13.45;;;3.20;;
57241;SDS011;43095;53.302;5.786;2022-10-16T12:00:37;12.68;;;2.75;;
57241;SDS011;43095;53.302;5.786;2022-10-16T12:08:44;16.40;;;4.03;;
57241;SDS011;43095;53.302;5.786;2022-10-16T12:16:59;14.52;;;2.50;;
57241;SDS011;43095;53.302;5.786;2022-10-16T12:19:27;11.95;;;2.90;;
57241;SDS011;43095;53.302;5.786;2022-10-16T12:21:58;13.43;;;3.78;;
57241;SDS011;43095;53.302;5.786;2022-10-16T12:27:21;18.02;;;3.47;;
57241;SDS011;43095;53.302;5.786;2022-10-16T12:29:57;12.88;;;3.25;;
57241;SDS011;43095;53.302;5.786;2022-10-16T12:32:33;12.77;;;2.08;;
57241;SDS011;43095;53.302;5.786;2022-10-16T12:35:18;11.48;;;2.60;;
57241;SDS011;43095;53.302;5.786;2022-10-16T12:37:48;10.57;;;2.28;;
57241;SDS011;43095;53.302;5.786;2022-10-16T12:40:27;10.35;;;2.25;;
57241;SDS011;43095;53.302;5.786;2022-10-16T12:43:10;11.05;;;2.15;;
57241;SDS011;43095;53.302;5.786;2022-10-16T12:46:01;14.40;;;2.78;;
57241;SDS011;43095;53.302;5.786;2022-10-16T12:48:31;12.02;;;2.30;;
57241;SDS011;43095;53.302;5.786;2022-10-16T12:51:33;17.27;;;3.28;;
57241;SDS011;43095;53.302;5.786;2022-10-16T12:54:12;10.82;;;2.60;;
57241;SDS011;43095;53.302;5.786;2022-10-16T13:04:50;12.02;;;2.47;;
57241;SDS011;43095;53.302;5.786;2022-10-16T13:13:13;10.93;;;2.67;;
57241;SDS011;43095;53.302;5.786;2022-10-16T13:19:21;14.02;;;2.53;;
57241;SDS011;43095;53.302;5.786;2022-10-16T13:28:01;7.63;;;2.40;;
57241;SDS011;43095;53.302;5.786;2022-10-16T13:30:30;12.13;;;2.25;;
57241;SDS011;43095;53.302;5.786;2022-10-16T13:36:02;16.30;;;2.40;;
57241;SDS011;43095;53.302;5.786;2022-10-16T13:38:34;12.93;;;2.13;;
57241;SDS011;43095;53.302;5.786;2022-10-16T13:41:16;7.93;;;2.13;;
57241;SDS011;43095;53.302;5.786;2022-10-16T13:43:49;13.57;;;2.28;;
57241;SDS011;43095;53.302;5.786;2022-10-16T13:46:25;13.13;;;3.20;;
57241;SDS011;43095;53.302;5.786;2022-10-16T13:48:58;10.43;;;2.30;;
57241;SDS011;43095;53.302;5.786;2022-10-16T13:51:34;11.27;;;2.25;;
57241;SDS011;43095;53.302;5.786;2022-10-16T13:54:03;9.80;;;1.80;;
57241;SDS011;43095;53.302;5.786;2022-10-16T13:56:31;14.63;;;2.83;;
57241;SDS011;43095;53.302;5.786;2022-10-16T13:59:00;11.23;;;2.75;;
57241;SDS011;43095;53.302;5.786;2022-10-16T14:01:42;12.18;;;2.05;;
57241;SDS011;43095;53.302;5.786;2022-10-16T14:04:13;14.55;;;2.47;;
57241;SDS011;43095;53.302;5.786;2022-10-16T14:06:51;14.95;;;2.78;;
57241;SDS011;43095;53.302;5.786;2022-10-16T14:09:30;12.98;;;2.47;;
57241;SDS011;43095;53.302;5.786;2022-10-16T14:12:07;14.02;;;2.63;;
57241;SDS011;43095;53.302;5.786;2022-10-16T14:14:46;11.88;;;2.30;;
57241;SDS011;43095;53.302;5.786;2022-10-16T14:17:18;10.57;;;2.80;;
57241;SDS011;43095;53.302;5.786;2022-10-16T14:22:45;13.88;;;2.35;;
57241;SDS011;43095;53.302;5.786;2022-10-16T14:28:04;10.85;;;2.20;;
57241;SDS011;43095;53.302;5.786;2022-10-16T14:30:35;16.20;;;2.78;;
57241;SDS011;43095;53.302;5.786;2022-10-16T14:36:16;9.38;;;2.65;;
57241;SDS011;43095;53.302;5.786;2022-10-16T14:38:54;9.20;;;2.10;;
57241;SDS011;43095;53.302;5.786;2022-10-16T14:41:29;14.43;;;2.95;;
57241;SDS011;43095;53.302;5.786;2022-10-16T14:44:03;15.10;;;3.03;;
57241;SDS011;43095;53.302;5.786;2022-10-16T14:46:39;13.00;;;2.20;;
57241;SDS011;43095;53.302;5.786;2022-10-16T14:49:29;10.65;;;2.22;;
57241;SDS011;43095;53.302;5.786;2022-10-16T14:51:58;13.60;;;2.55;;
57241;SDS011;43095;53.302;5.786;2022-10-16T14:54:26;14.93;;;2.55;;
57241;SDS011;43095;53.302;5.786;2022-10-16T14:56:54;12.98;;;2.10;;
57241;SDS011;43095;53.302;5.786;2022-10-16T14:59:34;11.43;;;2.40;;
57241;SDS011;43095;53.302;5.786;2022-10-16T15:05:17;15.75;;;2.35;;
57241;SDS011;43095;53.302;5.786;2022-10-16T15:07:54;14.50;;;2.33;;
57241;SDS011;43095;53.302;5.786;2022-10-16T15:10:25;13.13;;;2.25;;
57241;SDS011;43095;53.302;5.786;2022-10-16T15:13:11;12.10;;;2.03;;
57241;SDS011;43095;53.302;5.786;2022-10-16T15:15:44;10.98;;;2.33;;
57241;SDS011;43095;53.302;5.786;2022-10-16T15:18:14;15.15;;;2.83;;
57241;SDS011;43095;53.302;5.786;2022-10-16T15:20:48;16.35;;;3.40;;
57241;SDS011;43095;53.302;5.786;2022-10-16T15:23:21;10.48;;;2.20;;
57241;SDS011;43095;53.302;5.786;2022-10-16T15:25:53;21.50;;;3.55;;
57241;SDS011;43095;53.302;5.786;2022-10-16T15:30:52;13.38;;;3.08;;
57241;SDS011;43095;53.302;5.786;2022-10-16T15:33:21;12.35;;;2.67;;
57241;SDS011;43095;53.302;5.786;2022-10-16T15:35:52;10.32;;;2.35;;
57241;SDS011;43095;53.302;5.786;2022-10-16T15:38:23;9.73;;;2.20;;
57241;SDS011;43095;53.302;5.786;2022-10-16T15:40:53;17.83;;;2.67;;
57241;SDS011;43095;53.302;5.786;2022-10-16T15:43:20;16.15;;;3.58;;
57241;SDS011;43095;53.302;5.786;2022-10-16T15:45:54;14.88;;;2.58;;
57241;SDS011;43095;53.302;5.786;2022-10-16T15:48:27;9.88;;;2.53;;
57241;SDS011;43095;53.302;5.786;2022-10-16T15:50:55;12.77;;;2.78;;
57241;SDS011;43095;53.302;5.786;2022-10-16T15:53:23;10.90;;;1.95;;
57241;SDS011;43095;53.302;5.786;2022-10-16T15:55:51;12.73;;;2.50;;
57241;SDS011;43095;53.302;5.786;2022-10-16T15:58:18;15.10;;;2.40;;
57241;SDS011;43095;53.302;5.786;2022-10-16T16:00:54;10.98;;;2.30;;
57241;SDS011;43095;53.302;5.786;2022-10-16T16:03:23;15.60;;;2.70;;
57241;SDS011;43095;53.302;5.786;2022-10-16T16:05:50;16.85;;;2.45;;
57241;SDS011;43095;53.302;5.786;2022-10-16T16:08:18;9.77;;;2.05;;
57241;SDS011;43095;53.302;5.786;2022-10-16T16:10:46;10.35;;;2.30;;
57241;SDS011;43095;53.302;5.786;2022-10-16T16:13:35;11.27;;;2.15;;
57241;SDS011;43095;53.302;5.786;2022-10-16T16:16:08;12.85;;;1.95;;
57241;SDS011;43095;53.302;5.786;2022-10-16T16:18:43;9.48;;;2.25;;
57241;SDS011;43095;53.302;5.786;2022-10-16T16:21:11;19.20;;;7.22;;
57241;SDS011;43095;53.302;5.786;2022-10-16T16:23:40;22.75;;;9.05;;
57241;SDS011;43095;53.302;5.786;2022-10-16T16:26:12;16.50;;;5.78;;
57241;SDS011;43095;53.302;5.786;2022-10-16T16:28:53;14.13;;;4.85;;
57241;SDS011;43095;53.302;5.786;2022-10-16T16:31:26;19.73;;;6.88;;
57241;SDS011;43095;53.302;5.786;2022-10-16T16:33:55;17.80;;;4.90;;
57241;SDS011;43095;53.302;5.786;2022-10-16T16:36:24;17.30;;;5.30;;
57241;SDS011;43095;53.302;5.786;2022-10-16T16:38:52;13.80;;;4.72;;
57241;SDS011;43095;53.302;5.786;2022-10-16T16:41:22;17.70;;;7.38;;
57241;SDS011;43095;53.302;5.786;2022-10-16T16:43:53;20.75;;;7.65;;
57241;SDS011;43095;53.302;5.786;2022-10-16T16:46:20;16.25;;;8.00;;
57241;SDS011;43095;53.302;5.786;2022-10-16T16:48:50;15.85;;;7.53;;
57241;SDS011;43095;53.302;5.786;2022-10-16T16:51:19;13.48;;;6.13;;
57241;SDS011;43095;53.302;5.786;2022-10-16T16:53:49;10.70;;;4.88;;
57241;SDS011;43095;53.302;5.786;2022-10-16T16:56:19;11.75;;;3.03;;
57241;SDS011;43095;53.302;5.786;2022-10-16T16:58:48;14.85;;;3.75;;
57241;SDS011;43095;53.302;5.786;2022-10-16T17:01:17;13.55;;;3.47;;
57241;SDS011;43095;53.302;5.786;2022-10-16T17:03:48;11.90;;;2.83;;
57241;SDS011;43095;53.302;5.786;2022-10-16T17:06:21;12.65;;;2.80;;
57241;SDS011;43095;53.302;5.786;2022-10-16T17:11:19;9.93;;;1.80;;
57241;SDS011;43095;53.302;5.786;2022-10-16T17:13:48;8.43;;;2.22;;
57241;SDS011;43095;53.302;5.786;2022-10-16T17:16:26;12.75;;;3.17;;
57241;SDS011;43095;53.302;5.786;2022-10-16T17:18:59;11.32;;;2.17;;